createdAt,value
2019-06-26T00:01:52.049Z,23.40
2019-06-26T00:04:19.547Z,23.40
2019-06-26T00:06:47.434Z,23.40
2019-06-26T00:09:15.070Z,23.30
2019-06-26T00:11:42.671Z,23.30
2019-06-26T00:14:10.227Z,23.20
2019-06-26T00:16:38.150Z,23.10
2019-06-26T00:19:05.704Z,23.20
2019-06-26T00:21:33.282Z,23.20
2019-06-26T00:24:00.902Z,23.10
2019-06-26T00:26:28.737Z,23.00
2019-06-26T00:28:56.280Z,23.00
2019-06-26T00:31:23.980Z,22.90
2019-06-26T00:33:51.493Z,22.80
2019-06-26T00:36:19.334Z,22.70
2019-06-26T00:38:46.891Z,22.70
2019-06-26T00:41:14.481Z,22.70
2019-06-26T00:43:42.952Z,22.60
2019-06-26T00:46:10.509Z,22.60
2019-06-26T00:48:38.054Z,22.70
2019-06-26T00:51:05.526Z,22.60
2019-06-26T00:53:33.082Z,22.60
2019-06-26T00:56:00.536Z,22.60
2019-06-26T00:58:28.290Z,22.60
2019-06-26T01:00:55.732Z,22.60
2019-06-26T01:03:23.578Z,22.60
2019-06-26T01:05:51.176Z,22.60
2019-06-26T01:08:18.774Z,22.60
2019-06-26T01:10:46.284Z,22.60
2019-06-26T01:13:13.902Z,22.60
2019-06-26T01:15:41.796Z,22.50
2019-06-26T01:18:09.353Z,22.50
2019-06-26T01:20:36.878Z,22.40
2019-06-26T01:23:04.300Z,22.30
2019-06-26T01:25:31.895Z,22.40
2019-06-26T01:27:59.595Z,22.40
2019-06-26T01:30:27.114Z,22.40
2019-06-26T01:32:54.667Z,22.30
2019-06-26T01:35:22.791Z,22.30
2019-06-26T01:37:50.366Z,22.20
2019-06-26T01:40:17.984Z,22.20
2019-06-26T01:42:45.454Z,22.20
2019-06-26T01:45:12.989Z,22.20
2019-06-26T01:47:40.531Z,22.20
2019-06-26T01:50:08.384Z,22.20
2019-06-26T01:52:35.981Z,22.10
2019-06-26T01:55:03.397Z,22.00
2019-06-26T01:57:30.882Z,21.90
2019-06-26T01:59:58.736Z,21.90
2019-06-26T02:02:26.474Z,21.90
2019-06-26T02:04:54.301Z,21.90
2019-06-26T02:07:21.756Z,21.80
2019-06-26T02:09:49.263Z,21.70
2019-06-26T02:12:16.835Z,21.70
2019-06-26T02:14:44.407Z,21.60
2019-06-26T02:17:12.060Z,21.60
2019-06-26T02:19:39.627Z,21.60
2019-06-26T02:22:07.170Z,21.60
2019-06-26T02:24:35.005Z,21.60
2019-06-26T02:27:02.702Z,21.60
2019-06-26T02:29:30.672Z,21.60
2019-06-26T02:31:58.499Z,21.50
2019-06-26T02:34:25.956Z,21.50
2019-06-26T02:36:53.413Z,21.50
2019-06-26T02:39:21.874Z,21.50
2019-06-26T02:41:49.411Z,21.50
2019-06-26T02:44:17.193Z,21.50
2019-06-26T02:46:44.751Z,21.50
2019-06-26T02:49:12.306Z,21.40
2019-06-26T02:51:40.219Z,21.50
2019-06-26T02:54:07.803Z,21.50
2019-06-26T02:56:35.673Z,21.40
2019-06-26T02:59:03.212Z,21.40
2019-06-26T03:01:30.728Z,21.40
2019-06-26T03:03:58.296Z,21.40
2019-06-26T03:06:26.019Z,21.50
2019-06-26T03:08:53.848Z,21.50
2019-06-26T03:11:21.367Z,21.50
2019-06-26T03:13:48.922Z,21.50
2019-06-26T03:16:16.417Z,21.50
2019-06-26T03:18:44.445Z,21.40
2019-06-26T03:21:11.983Z,21.40
2019-06-26T03:23:39.681Z,21.40
2019-06-26T03:26:07.131Z,21.40
2019-06-26T03:28:35.011Z,21.40
2019-06-26T03:31:03.073Z,21.40
2019-06-26T03:33:30.624Z,21.40
2019-06-26T03:35:58.415Z,21.40
2019-06-26T03:38:25.820Z,21.40
2019-06-26T03:40:53.586Z,21.50
2019-06-26T03:43:21.351Z,21.50
2019-06-26T03:45:49.147Z,21.40
2019-06-26T03:48:16.895Z,21.40
2019-06-26T03:50:44.455Z,21.50
2019-06-26T03:53:11.989Z,21.40
2019-06-26T03:55:40.632Z,21.40
2019-06-26T03:58:08.192Z,21.50
2019-06-26T04:00:39.962Z,21.50
2019-06-26T04:03:07.954Z,21.50
2019-06-26T04:05:35.831Z,21.50
2019-06-26T04:08:03.487Z,21.60
2019-06-26T04:10:31.190Z,21.60
2019-06-26T04:12:59.307Z,21.60
2019-06-26T04:15:40.866Z,21.50
2019-06-26T04:17:57.454Z,21.60
2019-06-26T04:20:25.458Z,21.60
2019-06-26T04:22:53.605Z,21.70
2019-06-26T04:25:21.438Z,21.70
2019-06-26T04:27:48.942Z,21.70
2019-06-26T04:30:17.374Z,21.80
2019-06-26T04:32:44.918Z,21.90
2019-06-26T04:35:12.662Z,22.00
2019-06-26T04:37:41.160Z,22.00
2019-06-26T04:40:09.266Z,22.00
2019-06-26T04:42:36.800Z,22.10
2019-06-26T04:45:05.165Z,22.20
2019-06-26T04:47:32.977Z,22.20
2019-06-26T04:50:00.485Z,22.30
2019-06-26T04:52:28.283Z,22.30
2019-06-26T04:54:56.034Z,22.40
2019-06-26T04:57:23.588Z,22.40
2019-06-26T04:59:51.447Z,22.60
2019-06-26T05:02:19.419Z,22.60
2019-06-26T05:04:46.973Z,22.70
2019-06-26T05:07:15.518Z,22.80
2019-06-26T05:09:43.017Z,22.80
2019-06-26T05:12:11.122Z,22.90
2019-06-26T05:14:38.621Z,23.00
2019-06-26T05:17:06.869Z,23.00
2019-06-26T05:19:34.798Z,23.10
2019-06-26T05:22:02.318Z,23.10
2019-06-26T05:24:29.856Z,23.30
2019-06-26T05:26:57.384Z,23.30
2019-06-26T05:29:25.496Z,23.30
2019-06-26T05:31:53.779Z,23.40
2019-06-26T05:34:21.206Z,23.60
2019-06-26T05:36:49.104Z,23.70
2019-06-26T05:39:16.968Z,23.90
2019-06-26T05:41:45.039Z,24.00
2019-06-26T05:44:12.524Z,24.10
2019-06-26T05:46:40.010Z,24.30
2019-06-26T05:49:07.568Z,24.40
2019-06-26T05:51:35.006Z,24.60
2019-06-26T05:54:02.715Z,24.60
2019-06-26T05:56:30.489Z,24.80
2019-06-26T05:58:58.010Z,24.90
2019-06-26T06:01:25.452Z,25.00
2019-06-26T06:03:52.943Z,25.20
2019-06-26T06:06:20.455Z,25.30
2019-06-26T06:08:48.202Z,25.30
2019-06-26T06:11:15.968Z,25.50
2019-06-26T06:13:43.785Z,25.60
2019-06-26T06:16:11.559Z,25.70
2019-06-26T06:18:39.077Z,25.70
2019-06-26T06:21:06.922Z,25.80
2019-06-26T06:23:34.879Z,26.00
2019-06-26T06:26:02.510Z,26.10
2019-06-26T06:28:29.983Z,26.20
2019-06-26T06:30:57.511Z,26.30
2019-06-26T06:33:24.912Z,26.50
2019-06-26T06:35:52.385Z,26.60
2019-06-26T06:38:20.211Z,26.70
2019-06-26T06:40:47.676Z,26.90
2019-06-26T06:43:15.105Z,27.00
2019-06-26T06:45:42.587Z,27.10
2019-06-26T06:48:10.089Z,27.20
2019-06-26T06:50:37.502Z,27.30
2019-06-26T06:53:05.106Z,27.50
2019-06-26T06:55:32.568Z,27.50
2019-06-26T06:57:59.960Z,27.60
2019-06-26T07:00:27.379Z,27.70
2019-06-26T07:02:54.885Z,27.80
2019-06-26T07:05:22.782Z,27.90
2019-06-26T07:07:50.286Z,28.00
2019-06-26T07:10:17.985Z,28.10
2019-06-26T07:12:45.445Z,28.30
2019-06-26T07:15:13.419Z,28.40
2019-06-26T07:17:41.271Z,28.50
2019-06-26T07:20:08.874Z,28.60
2019-06-26T07:22:36.818Z,28.70
2019-06-26T07:25:04.614Z,28.80
2019-06-26T07:27:31.995Z,28.90
2019-06-26T07:29:59.412Z,29.10
2019-06-26T07:32:26.921Z,29.20
2019-06-26T07:34:54.348Z,29.40
2019-06-26T07:37:22.166Z,29.50
2019-06-26T07:39:50.242Z,29.50
2019-06-26T07:42:18.446Z,29.60
2019-06-26T07:44:46.018Z,29.70
2019-06-26T07:47:22.899Z,29.70
2019-06-26T07:49:42.861Z,29.80
2019-06-26T07:52:10.284Z,30.00
2019-06-26T07:54:37.812Z,30.10
2019-06-26T07:57:05.337Z,30.20
2019-06-26T07:59:32.779Z,30.30
2019-06-26T08:02:00.279Z,30.50
2019-06-26T08:04:28.014Z,30.50
2019-06-26T08:06:55.446Z,30.60
2019-06-26T08:09:22.882Z,30.60
2019-06-26T08:11:50.582Z,30.70
2019-06-26T08:14:18.347Z,30.80
2019-06-26T08:16:45.848Z,31.00
2019-06-26T08:19:13.273Z,31.00
2019-06-26T08:21:41.164Z,31.00
2019-06-26T08:24:08.570Z,31.10
2019-06-26T08:26:35.998Z,31.20
2019-06-26T08:29:03.447Z,31.10
2019-06-26T08:31:30.942Z,31.10
2019-06-26T08:33:58.366Z,31.20
2019-06-26T08:36:26.264Z,31.30
2019-06-26T08:38:53.801Z,31.40
2019-06-26T08:41:21.463Z,31.50
2019-06-26T08:43:49.631Z,31.70
2019-06-26T08:46:17.487Z,31.70
2019-06-26T08:48:45.247Z,31.80
2019-06-26T08:51:12.691Z,31.90
2019-06-26T08:53:40.200Z,32.10
2019-06-26T08:56:07.723Z,32.30
2019-06-26T08:58:35.133Z,32.50
2019-06-26T09:01:02.749Z,32.70
2019-06-26T09:03:30.302Z,32.80
2019-06-26T09:05:58.274Z,32.90
2019-06-26T09:08:26.253Z,33.00
2019-06-26T09:10:54.208Z,33.20
2019-06-26T09:13:21.609Z,33.30
2019-06-26T09:15:50.063Z,33.40
2019-06-26T09:18:31.088Z,33.40
2019-06-26T09:20:47.493Z,33.40
2019-06-26T09:23:15.482Z,33.40
2019-06-26T09:25:43.322Z,33.40
2019-06-26T09:28:10.825Z,33.30
2019-06-26T09:30:38.632Z,33.30
2019-06-26T09:33:06.318Z,33.50
2019-06-26T09:35:33.782Z,33.60
2019-06-26T09:38:01.953Z,33.70
2019-06-26T09:40:31.872Z,33.90
2019-06-26T09:42:58.737Z,33.90
2019-06-26T09:45:26.484Z,34.00
2019-06-26T09:47:53.926Z,34.00
2019-06-26T09:50:21.427Z,34.10
2019-06-26T09:52:49.197Z,34.30
2019-06-26T09:55:17.564Z,34.50
2019-06-26T09:57:45.125Z,34.70
2019-06-26T10:00:13.870Z,34.80
2019-06-26T10:02:41.992Z,34.90
2019-06-26T10:05:09.746Z,35.10
2019-06-26T10:07:37.928Z,35.10
2019-06-26T10:10:06.262Z,35.20
2019-06-26T10:12:33.696Z,35.30
2019-06-26T10:15:01.262Z,35.50
2019-06-26T10:17:28.742Z,35.60
2019-06-26T10:19:56.396Z,35.60
2019-06-26T10:22:24.184Z,35.50
2019-06-26T10:24:51.688Z,35.70
2019-06-26T10:27:19.110Z,35.90
2019-06-26T10:29:46.551Z,35.60
2019-06-26T10:32:14.376Z,35.70
2019-06-26T10:34:42.814Z,35.80
2019-06-26T10:37:10.801Z,35.90
2019-06-26T10:39:38.644Z,36.00
2019-06-26T10:42:06.512Z,35.90
2019-06-26T10:44:34.069Z,35.80
2019-06-26T10:47:01.460Z,35.90
2019-06-26T10:49:29.294Z,36.00
2019-06-26T10:51:56.814Z,35.90
2019-06-26T10:54:24.289Z,35.90
2019-06-26T10:56:52.120Z,35.90
2019-06-26T10:59:19.997Z,35.70
2019-06-26T11:01:47.786Z,35.90
2019-06-26T11:04:15.409Z,36.10
2019-06-26T11:06:42.844Z,36.30
2019-06-26T11:09:10.613Z,36.40
2019-06-26T11:11:38.229Z,36.40
2019-06-26T11:14:05.843Z,36.50
2019-06-26T11:16:33.336Z,36.80
2019-06-26T11:19:00.861Z,36.90
2019-06-26T11:21:28.595Z,36.90
2019-06-26T11:23:56.129Z,37.00
2019-06-26T11:26:23.969Z,37.10
2019-06-26T11:28:51.489Z,37.20
2019-06-26T11:31:18.962Z,37.40
2019-06-26T11:33:46.413Z,37.60
2019-06-26T11:36:14.552Z,37.60
2019-06-26T11:38:42.014Z,37.70
2019-06-26T11:41:09.781Z,37.70
2019-06-26T11:43:37.193Z,37.80
2019-06-26T11:46:04.761Z,37.80
2019-06-26T11:48:32.272Z,37.80
2019-06-26T11:50:59.679Z,37.80
2019-06-26T11:53:27.150Z,37.80
2019-06-26T11:55:54.637Z,37.80
2019-06-26T11:58:23.007Z,37.60
2019-06-26T12:00:51.011Z,37.60
2019-06-26T12:03:18.534Z,37.40
2019-06-26T12:05:45.938Z,37.40
2019-06-26T12:08:13.711Z,37.50
2019-06-26T12:10:41.567Z,37.60
2019-06-26T12:13:09.022Z,37.80
2019-06-26T12:15:36.794Z,37.90
2019-06-26T12:18:04.242Z,38.00
2019-06-26T12:20:31.715Z,37.90
2019-06-26T12:22:59.254Z,37.90
2019-06-26T12:25:26.806Z,38.20
2019-06-26T12:27:54.347Z,38.20
2019-06-26T12:30:21.974Z,38.20
2019-06-26T12:33:02.143Z,38.10
2019-06-26T12:35:19.400Z,38.10
2019-06-26T12:37:46.872Z,38.10
2019-06-26T12:40:14.566Z,38.10
2019-06-26T12:42:42.356Z,38.30
2019-06-26T12:45:10.338Z,38.30
2019-06-26T12:47:38.185Z,38.20
2019-06-26T12:50:06.569Z,38.20
2019-06-26T12:52:34.114Z,38.10
2019-06-26T12:55:01.829Z,38.10
2019-06-26T12:57:29.486Z,38.20
2019-06-26T12:59:58.113Z,38.20
2019-06-26T13:02:25.657Z,38.20
2019-06-26T13:04:53.176Z,38.30
2019-06-26T13:07:20.614Z,38.30
2019-06-26T13:09:48.185Z,38.40
2019-06-26T13:12:16.050Z,38.60
2019-06-26T13:14:43.435Z,38.80
2019-06-26T13:17:10.892Z,38.90
2019-06-26T13:19:38.506Z,38.90
2019-06-26T13:22:05.965Z,38.90
2019-06-26T13:24:33.410Z,39.10
2019-06-26T13:27:00.938Z,39.20
2019-06-26T13:29:28.466Z,39.00
2019-06-26T13:31:56.025Z,38.90
2019-06-26T13:34:23.554Z,38.70
2019-06-26T13:36:51.209Z,38.70
2019-06-26T13:39:18.763Z,38.70
2019-06-26T13:41:46.678Z,38.80
2019-06-26T13:44:14.472Z,38.90
2019-06-26T13:46:42.002Z,38.90
2019-06-26T13:49:09.538Z,38.80
2019-06-26T13:51:37.004Z,38.80
2019-06-26T13:54:04.438Z,38.90
2019-06-26T13:56:32.405Z,39.20
2019-06-26T13:58:59.835Z,39.40
2019-06-26T14:01:27.939Z,39.40
2019-06-26T14:03:55.348Z,39.60
2019-06-26T14:06:22.897Z,39.80
2019-06-26T14:08:50.415Z,39.70
2019-06-26T14:11:17.847Z,39.90
2019-06-26T14:13:45.615Z,40.00
2019-06-26T14:16:13.286Z,39.80
2019-06-26T14:18:41.152Z,39.80
2019-06-26T14:21:21.557Z,39.50
2019-06-26T14:23:39.328Z,39.70
2019-06-26T14:26:07.190Z,39.80
2019-06-26T14:28:34.962Z,39.80
2019-06-26T14:31:02.740Z,39.80
2019-06-26T14:33:30.224Z,39.90
2019-06-26T14:35:58.559Z,39.80
2019-06-26T14:38:26.029Z,39.90
2019-06-26T14:40:53.515Z,39.90
2019-06-26T14:43:21.067Z,39.90
2019-06-26T14:45:48.591Z,40.10
2019-06-26T14:48:16.050Z,40.30
2019-06-26T14:50:44.314Z,40.20
2019-06-26T14:53:11.947Z,40.20
2019-06-26T14:55:40.261Z,40.10
2019-06-26T14:58:07.780Z,40.30
2019-06-26T15:00:35.510Z,40.30
2019-06-26T15:03:03.654Z,40.60
2019-06-26T15:05:31.135Z,40.80
2019-06-26T15:07:58.706Z,40.90
2019-06-26T15:10:26.591Z,40.80
2019-06-26T15:12:54.170Z,40.80
2019-06-26T15:15:21.658Z,40.60
2019-06-26T15:17:49.941Z,40.80
2019-06-26T15:20:17.860Z,41.10
2019-06-26T15:22:46.099Z,41.20
2019-06-26T15:25:13.808Z,41.50
2019-06-26T15:27:41.940Z,41.20
2019-06-26T15:30:09.767Z,41.40
2019-06-26T15:32:37.678Z,41.50
2019-06-26T15:35:06.733Z,41.50
2019-06-26T15:37:34.348Z,41.50
2019-06-26T15:40:02.833Z,41.50
2019-06-26T15:42:30.752Z,41.40
2019-06-26T15:44:58.207Z,41.40
2019-06-26T15:47:25.695Z,41.60
2019-06-26T15:49:53.205Z,41.80
2019-06-26T15:52:20.693Z,41.90
2019-06-26T15:54:48.447Z,41.80
2019-06-26T15:57:16.618Z,41.80
2019-06-26T15:59:44.149Z,41.90
2019-06-26T16:02:11.723Z,42.00
2019-06-26T16:04:39.320Z,42.30
2019-06-26T16:07:07.209Z,42.30
2019-06-26T16:09:34.674Z,42.20
2019-06-26T16:12:02.307Z,42.50
2019-06-26T16:14:29.888Z,42.50
2019-06-26T16:17:00.637Z,42.70
2019-06-26T16:19:29.054Z,43.10
2019-06-26T16:21:56.869Z,43.20
2019-06-26T16:24:24.748Z,43.20
2019-06-26T16:26:52.420Z,43.20
2019-06-26T16:29:19.906Z,43.30
2019-06-26T16:31:47.492Z,43.40
2019-06-26T16:34:15.307Z,43.60
2019-06-26T16:36:43.799Z,43.80
2019-06-26T16:39:11.211Z,43.50
2019-06-26T16:41:38.791Z,43.40
2019-06-26T16:44:06.859Z,43.40
2019-06-26T16:46:34.551Z,43.60
2019-06-26T16:49:02.131Z,43.60
2019-06-26T16:51:29.702Z,44.20
2019-06-26T16:53:57.654Z,44.40
2019-06-26T16:56:25.649Z,44.30
2019-06-26T16:58:53.282Z,44.10
2019-06-26T17:01:21.064Z,44.00
2019-06-26T17:03:48.707Z,44.10
2019-06-26T17:06:16.194Z,44.50
2019-06-26T17:08:43.931Z,45.10
2019-06-26T17:11:11.796Z,45.60
2019-06-26T17:13:39.674Z,45.80
2019-06-26T17:16:07.228Z,46.10
2019-06-26T17:18:36.018Z,46.30
2019-06-26T17:21:03.801Z,46.80
2019-06-26T17:23:31.580Z,47.10
2019-06-26T17:25:59.350Z,47.20
2019-06-26T17:28:27.526Z,47.40
2019-06-26T17:30:55.392Z,47.30
2019-06-26T17:33:23.091Z,47.30
2019-06-26T17:35:50.794Z,47.40
2019-06-26T17:38:18.607Z,47.70
2019-06-26T17:40:46.386Z,47.70
2019-06-26T17:43:14.430Z,47.90
2019-06-26T17:45:42.012Z,47.70
2019-06-26T17:48:09.526Z,47.80
2019-06-26T17:50:37.174Z,47.70
2019-06-26T17:53:20.316Z,47.00
2019-06-26T17:55:34.479Z,46.40
2019-06-26T17:58:02.124Z,45.70
2019-06-26T18:00:33.512Z,45.10
2019-06-26T18:03:01.075Z,44.50
2019-06-26T18:05:28.911Z,44.10
2019-06-26T18:07:56.909Z,43.80
2019-06-26T18:10:24.494Z,43.60
2019-06-26T18:12:52.906Z,43.40
2019-06-26T18:15:20.968Z,42.90
2019-06-26T18:17:48.612Z,42.60
2019-06-26T18:20:16.998Z,42.10
2019-06-26T18:22:44.435Z,41.50
2019-06-26T18:25:16.460Z,40.60
2019-06-26T18:27:43.012Z,39.70
2019-06-26T18:30:12.322Z,39.30
2019-06-26T18:32:39.922Z,39.00
2019-06-26T18:35:08.971Z,38.50
2019-06-26T18:37:36.790Z,38.10
2019-06-26T18:40:05.832Z,37.70
2019-06-26T18:42:33.920Z,37.20
2019-06-26T18:45:01.357Z,36.80
2019-06-26T18:47:29.526Z,36.60
2019-06-26T18:49:57.139Z,36.30
2019-06-26T18:52:24.815Z,36.10
2019-06-26T18:54:52.710Z,35.80
2019-06-26T18:57:20.868Z,35.60
2019-06-26T18:59:49.000Z,35.30
2019-06-26T19:02:16.853Z,34.90
2019-06-26T19:04:44.368Z,34.90
2019-06-26T19:07:11.990Z,34.70
2019-06-26T19:09:39.503Z,34.70
2019-06-26T19:12:07.373Z,34.70
2019-06-26T19:14:35.124Z,34.50
2019-06-26T19:17:02.567Z,34.30
2019-06-26T19:19:30.679Z,34.10
2019-06-26T19:21:58.287Z,34.00
2019-06-26T19:24:26.146Z,33.90
2019-06-26T19:26:54.027Z,33.90
2019-06-26T19:29:24.180Z,33.70
2019-06-26T19:31:52.343Z,33.60
2019-06-26T19:34:20.198Z,33.40
2019-06-26T19:36:50.505Z,33.20
2019-06-26T19:39:19.834Z,33.00
2019-06-26T19:41:46.859Z,32.90
2019-06-26T19:44:14.693Z,32.80
2019-06-26T19:46:43.238Z,32.60
2019-06-26T19:49:10.830Z,32.60
2019-06-26T19:51:39.160Z,32.50
2019-06-26T19:54:06.760Z,32.50
2019-06-26T19:56:34.312Z,32.50
2019-06-26T19:59:02.353Z,32.40
2019-06-26T20:01:29.785Z,32.30
2019-06-26T20:03:57.359Z,32.20
2019-06-26T20:06:24.934Z,32.10
2019-06-26T20:08:57.286Z,31.90
2019-06-26T20:11:22.102Z,31.90
2019-06-26T20:13:49.894Z,31.90
2019-06-26T20:16:17.365Z,31.80
2019-06-26T20:18:45.183Z,31.80
2019-06-26T20:21:12.952Z,31.70
2019-06-26T20:23:40.510Z,31.60
2019-06-26T20:26:08.485Z,31.40
2019-06-26T20:28:36.301Z,31.20
2019-06-26T20:31:04.198Z,30.90
2019-06-26T20:33:32.765Z,30.80
2019-06-26T20:36:00.320Z,30.60
2019-06-26T20:38:28.104Z,30.60
2019-06-26T20:40:55.711Z,30.50
2019-06-26T20:43:23.395Z,30.40
2019-06-26T20:45:50.910Z,30.30
2019-06-26T20:48:18.338Z,30.20
2019-06-26T20:50:46.191Z,30.20
2019-06-26T20:53:13.724Z,30.10
2019-06-26T20:55:41.780Z,30.00
2019-06-26T20:58:09.322Z,30.00
2019-06-26T21:00:37.295Z,29.90
2019-06-26T21:03:04.908Z,29.90
2019-06-26T21:05:32.691Z,29.90
2019-06-26T21:08:00.577Z,29.90
2019-06-26T21:10:28.118Z,29.80
2019-06-26T21:12:56.157Z,29.80
2019-06-26T21:15:23.681Z,29.70
2019-06-26T21:17:51.194Z,29.70
2019-06-26T21:20:18.791Z,29.70
2019-06-26T21:22:46.580Z,29.60
2019-06-26T21:25:18.758Z,29.50
2019-06-26T21:27:43.869Z,29.40
2019-06-26T21:30:12.011Z,29.40
2019-06-26T21:32:39.570Z,29.40
2019-06-26T21:35:07.123Z,29.30
2019-06-26T21:37:35.805Z,29.30
2019-06-26T21:40:03.348Z,29.20
2019-06-26T21:42:31.066Z,29.00
2019-06-26T21:44:58.789Z,29.00
2019-06-26T21:47:26.450Z,28.90
2019-06-26T21:49:54.211Z,28.90
2019-06-26T21:52:21.694Z,28.80
2019-06-26T21:54:49.422Z,28.80
2019-06-26T21:57:17.115Z,28.70
2019-06-26T21:59:44.675Z,28.70
2019-06-26T22:02:12.460Z,28.60
2019-06-26T22:04:39.856Z,28.50
2019-06-26T22:07:07.418Z,28.50
2019-06-26T22:09:35.187Z,28.40
2019-06-26T22:12:02.698Z,28.30
2019-06-26T22:14:30.264Z,28.20
2019-06-26T22:16:58.057Z,28.20
2019-06-26T22:19:26.241Z,28.20
2019-06-26T22:21:53.738Z,28.10
2019-06-26T22:24:21.179Z,28.10
2019-06-26T22:26:48.718Z,28.00
2019-06-26T22:29:16.196Z,27.90
2019-06-26T22:31:43.703Z,27.80
2019-06-26T22:34:11.575Z,27.80
2019-06-26T22:36:39.049Z,27.70
2019-06-26T22:39:06.450Z,27.50
2019-06-26T22:41:34.218Z,27.60
2019-06-26T22:44:02.429Z,27.50
2019-06-26T22:46:30.192Z,27.40
2019-06-26T22:48:57.718Z,27.40
2019-06-26T22:51:25.611Z,27.30
2019-06-26T22:53:53.415Z,27.30
2019-06-26T22:56:20.832Z,27.30
2019-06-26T22:58:49.061Z,27.20
2019-06-26T23:01:17.863Z,27.10
2019-06-26T23:03:45.425Z,27.10
2019-06-26T23:06:12.963Z,27.00
2019-06-26T23:08:40.822Z,26.90
2019-06-26T23:11:08.326Z,26.90
2019-06-26T23:13:35.859Z,26.80
2019-06-26T23:16:03.412Z,26.80
2019-06-26T23:18:30.969Z,26.80
2019-06-26T23:20:58.683Z,26.80
2019-06-26T23:23:26.174Z,26.70
2019-06-26T23:25:54.582Z,26.70
2019-06-26T23:28:23.498Z,26.60
2019-06-26T23:30:51.128Z,26.50
2019-06-26T23:33:18.694Z,26.40
2019-06-26T23:35:46.533Z,26.40
2019-06-26T23:38:14.349Z,26.30
2019-06-26T23:40:41.862Z,26.30
2019-06-26T23:43:09.285Z,26.20
2019-06-26T23:45:36.810Z,26.20
2019-06-26T23:48:04.371Z,26.20
2019-06-26T23:50:31.879Z,26.20
2019-06-26T23:52:59.442Z,26.10
2019-06-26T23:55:27.256Z,26.10
2019-06-26T23:57:59.519Z,26.00
